sensor_id;sensor_type;location;lat;lon;timestamp;P1;durP1;ratioP1;P2;durP2;ratioP2
76259;SDS011;65076;52.362;6.588;2023-04-24T00:01:16;1.90;;;1.45;;
76259;SDS011;65076;52.362;6.588;2023-04-24T00:05:48;3.20;;;1.88;;
76259;SDS011;65076;52.362;6.588;2023-04-24T00:10:20;3.95;;;1.88;;
76259;SDS011;65076;52.362;6.588;2023-04-24T00:14:49;4.60;;;2.65;;
76259;SDS011;65076;52.362;6.588;2023-04-24T00:19:18;3.08;;;2.58;;
76259;SDS011;65076;52.362;6.588;2023-04-24T00:23:51;4.25;;;3.05;;
76259;SDS011;65076;52.362;6.588;2023-04-24T00:28:22;3.70;;;2.97;;
76259;SDS011;65076;52.362;6.588;2023-04-24T00:32:52;4.07;;;3.10;;
76259;SDS011;65076;52.362;6.588;2023-04-24T00:37:21;5.00;;;3.42;;
76259;SDS011;65076;52.362;6.588;2023-04-24T00:41:50;6.85;;;2.83;;
76259;SDS011;65076;52.362;6.588;2023-04-24T00:46:21;4.93;;;3.28;;
76259;SDS011;65076;52.362;6.588;2023-04-24T00:50:51;3.47;;;2.55;;
76259;SDS011;65076;52.362;6.588;2023-04-24T00:55:20;2.67;;;2.20;;
76259;SDS011;65076;52.362;6.588;2023-04-24T00:59:50;3.63;;;2.75;;
76259;SDS011;65076;52.362;6.588;2023-04-24T01:04:21;5.80;;;3.25;;
76259;SDS011;65076;52.362;6.588;2023-04-24T01:08:50;5.03;;;3.25;;
76259;SDS011;65076;52.362;6.588;2023-04-24T01:13:20;5.20;;;3.60;;
76259;SDS011;65076;52.362;6.588;2023-04-24T01:17:50;6.25;;;3.88;;
76259;SDS011;65076;52.362;6.588;2023-04-24T01:22:21;4.63;;;3.53;;
76259;SDS011;65076;52.362;6.588;2023-04-24T01:26:50;5.63;;;4.03;;
76259;SDS011;65076;52.362;6.588;2023-04-24T01:31:20;8.45;;;3.92;;
76259;SDS011;65076;52.362;6.588;2023-04-24T01:35:49;7.45;;;4.50;;
76259;SDS011;65076;52.362;6.588;2023-04-24T01:40:21;5.18;;;3.33;;
76259;SDS011;65076;52.362;6.588;2023-04-24T01:44:50;5.15;;;3.25;;
76259;SDS011;65076;52.362;6.588;2023-04-24T01:49:20;5.50;;;2.75;;
76259;SDS011;65076;52.362;6.588;2023-04-24T01:53:49;4.57;;;2.28;;
76259;SDS011;65076;52.362;6.588;2023-04-24T01:58:20;2.50;;;1.75;;
76259;SDS011;65076;52.362;6.588;2023-04-24T02:02:51;1.88;;;1.48;;
76259;SDS011;65076;52.362;6.588;2023-04-24T02:07:20;4.65;;;2.45;;
76259;SDS011;65076;52.362;6.588;2023-04-24T02:11:50;2.33;;;1.90;;
76259;SDS011;65076;52.362;6.588;2023-04-24T02:16:20;2.13;;;1.63;;
76259;SDS011;65076;52.362;6.588;2023-04-24T02:20:49;3.92;;;2.25;;
76259;SDS011;65076;52.362;6.588;2023-04-24T02:25:19;4.50;;;2.47;;
76259;SDS011;65076;52.362;6.588;2023-04-24T02:29:48;3.55;;;1.80;;
76259;SDS011;65076;52.362;6.588;2023-04-24T02:34:18;4.18;;;2.45;;
76259;SDS011;65076;52.362;6.588;2023-04-24T02:38:48;4.50;;;2.85;;
76259;SDS011;65076;52.362;6.588;2023-04-24T02:43:18;8.63;;;3.55;;
76259;SDS011;65076;52.362;6.588;2023-04-24T02:47:47;6.45;;;4.43;;
76259;SDS011;65076;52.362;6.588;2023-04-24T02:52:18;10.95;;;5.60;;
76259;SDS011;65076;52.362;6.588;2023-04-24T02:56:47;6.65;;;4.05;;
76259;SDS011;65076;52.362;6.588;2023-04-24T03:01:16;7.32;;;5.68;;
76259;SDS011;65076;52.362;6.588;2023-04-24T03:05:45;8.85;;;5.80;;
76259;SDS011;65076;52.362;6.588;2023-04-24T03:10:16;8.63;;;5.88;;
76259;SDS011;65076;52.362;6.588;2023-04-24T03:14:46;7.93;;;4.35;;
76259;SDS011;65076;52.362;6.588;2023-04-24T03:19:15;6.15;;;3.40;;
76259;SDS011;65076;52.362;6.588;2023-04-24T03:23:44;5.80;;;3.42;;
76259;SDS011;65076;52.362;6.588;2023-04-24T03:28:16;3.42;;;2.13;;
76259;SDS011;65076;52.362;6.588;2023-04-24T03:32:45;4.40;;;2.50;;
76259;SDS011;65076;52.362;6.588;2023-04-24T03:37:14;3.47;;;2.17;;
76259;SDS011;65076;52.362;6.588;2023-04-24T03:41:48;2.33;;;1.75;;
76259;SDS011;65076;52.362;6.588;2023-04-24T03:46:18;5.18;;;2.50;;
76259;SDS011;65076;52.362;6.588;2023-04-24T03:50:47;3.55;;;2.05;;
76259;SDS011;65076;52.362;6.588;2023-04-24T03:55:17;3.00;;;2.17;;
76259;SDS011;65076;52.362;6.588;2023-04-24T03:59:46;2.70;;;2.20;;
76259;SDS011;65076;52.362;6.588;2023-04-24T04:04:16;3.95;;;2.38;;
76259;SDS011;65076;52.362;6.588;2023-04-24T04:08:47;4.70;;;2.67;;
76259;SDS011;65076;52.362;6.588;2023-04-24T04:13:16;3.30;;;2.10;;
76259;SDS011;65076;52.362;6.588;2023-04-24T04:17:46;4.38;;;3.38;;
76259;SDS011;65076;52.362;6.588;2023-04-24T04:22:16;6.38;;;4.18;;
76259;SDS011;65076;52.362;6.588;2023-04-24T04:26:46;6.00;;;3.58;;
76259;SDS011;65076;52.362;6.588;2023-04-24T04:31:16;8.88;;;5.55;;
76259;SDS011;65076;52.362;6.588;2023-04-24T04:35:46;11.35;;;5.47;;
76259;SDS011;65076;52.362;6.588;2023-04-24T04:40:16;10.15;;;5.85;;
76259;SDS011;65076;52.362;6.588;2023-04-24T04:44:46;8.93;;;5.05;;
76259;SDS011;65076;52.362;6.588;2023-04-24T04:49:16;8.95;;;5.40;;
76259;SDS011;65076;52.362;6.588;2023-04-24T04:53:45;6.70;;;4.68;;
76259;SDS011;65076;52.362;6.588;2023-04-24T04:58:18;9.73;;;4.30;;
76259;SDS011;65076;52.362;6.588;2023-04-24T05:02:48;6.22;;;3.70;;
76259;SDS011;65076;52.362;6.588;2023-04-24T05:07:18;5.68;;;3.78;;
76259;SDS011;65076;52.362;6.588;2023-04-24T05:11:47;7.20;;;4.47;;
76259;SDS011;65076;52.362;6.588;2023-04-24T05:16:18;10.52;;;5.82;;
76259;SDS011;65076;52.362;6.588;2023-04-24T05:20:47;13.52;;;7.95;;
76259;SDS011;65076;52.362;6.588;2023-04-24T05:25:16;12.60;;;7.00;;
76259;SDS011;65076;52.362;6.588;2023-04-24T05:29:45;13.63;;;8.15;;
76259;SDS011;65076;52.362;6.588;2023-04-24T05:34:16;19.60;;;10.20;;
76259;SDS011;65076;52.362;6.588;2023-04-24T05:38:45;13.60;;;8.80;;
76259;SDS011;65076;52.362;6.588;2023-04-24T05:43:15;20.02;;;10.30;;
76259;SDS011;65076;52.362;6.588;2023-04-24T05:47:45;23.55;;;12.35;;
76259;SDS011;65076;52.362;6.588;2023-04-24T05:52:15;21.70;;;12.55;;
76259;SDS011;65076;52.362;6.588;2023-04-24T05:56:45;20.08;;;11.40;;
76259;SDS011;65076;52.362;6.588;2023-04-24T06:01:14;21.40;;;11.07;;
76259;SDS011;65076;52.362;6.588;2023-04-24T06:05:44;21.92;;;11.65;;
76259;SDS011;65076;52.362;6.588;2023-04-24T06:10:15;19.50;;;11.23;;
76259;SDS011;65076;52.362;6.588;2023-04-24T06:14:44;19.70;;;9.57;;
76259;SDS011;65076;52.362;6.588;2023-04-24T06:19:15;13.52;;;7.90;;
76259;SDS011;65076;52.362;6.588;2023-04-24T06:23:44;19.50;;;10.18;;
76259;SDS011;65076;52.362;6.588;2023-04-24T06:28:15;14.35;;;7.90;;
76259;SDS011;65076;52.362;6.588;2023-04-24T06:32:44;18.05;;;9.70;;
76259;SDS011;65076;52.362;6.588;2023-04-24T06:37:14;18.02;;;9.68;;
76259;SDS011;65076;52.362;6.588;2023-04-24T06:41:45;13.25;;;8.43;;
76259;SDS011;65076;52.362;6.588;2023-04-24T06:46:18;9.90;;;6.10;;
76259;SDS011;65076;52.362;6.588;2023-04-24T06:50:47;12.98;;;7.20;;
76259;SDS011;65076;52.362;6.588;2023-04-24T06:55:17;14.25;;;8.05;;
76259;SDS011;65076;52.362;6.588;2023-04-24T06:59:46;10.13;;;5.43;;
76259;SDS011;65076;52.362;6.588;2023-04-24T07:04:19;9.55;;;5.60;;
76259;SDS011;65076;52.362;6.588;2023-04-24T07:08:50;9.18;;;5.32;;
76259;SDS011;65076;52.362;6.588;2023-04-24T07:13:19;8.38;;;3.28;;
76259;SDS011;65076;52.362;6.588;2023-04-24T07:17:49;3.72;;;2.08;;
76259;SDS011;65076;52.362;6.588;2023-04-24T07:22:20;3.38;;;1.60;;
76259;SDS011;65076;52.362;6.588;2023-04-24T07:26:52;3.38;;;1.50;;
76259;SDS011;65076;52.362;6.588;2023-04-24T07:31:22;2.03;;;1.35;;
76259;SDS011;65076;52.362;6.588;2023-04-24T07:35:51;2.80;;;1.63;;
76259;SDS011;65076;52.362;6.588;2023-04-24T07:40:22;1.45;;;0.82;;
76259;SDS011;65076;52.362;6.588;2023-04-24T07:44:51;1.65;;;1.55;;
76259;SDS011;65076;52.362;6.588;2023-04-24T07:49:21;1.75;;;1.13;;
76259;SDS011;65076;52.362;6.588;2023-04-24T07:53:50;1.60;;;1.25;;
76259;SDS011;65076;52.362;6.588;2023-04-24T07:58:21;3.05;;;1.23;;
76259;SDS011;65076;52.362;6.588;2023-04-24T08:02:50;0.95;;;0.55;;
76259;SDS011;65076;52.362;6.588;2023-04-24T08:07:20;1.48;;;0.73;;
76259;SDS011;65076;52.362;6.588;2023-04-24T08:11:52;0.63;;;0.63;;
76259;SDS011;65076;52.362;6.588;2023-04-24T08:16:23;1.70;;;0.98;;
76259;SDS011;65076;52.362;6.588;2023-04-24T08:20:52;1.65;;;0.73;;
76259;SDS011;65076;52.362;6.588;2023-04-24T08:25:22;2.05;;;0.95;;
76259;SDS011;65076;52.362;6.588;2023-04-24T08:29:52;0.70;;;0.55;;
76259;SDS011;65076;52.362;6.588;2023-04-24T08:34:23;0.10;;;0.10;;
76259;SDS011;65076;52.362;6.588;2023-04-24T08:39:01;1.55;;;0.30;;
76259;SDS011;65076;52.362;6.588;2023-04-24T08:43:31;0.47;;;0.30;;
76259;SDS011;65076;52.362;6.588;2023-04-24T08:48:02;0.75;;;0.50;;
76259;SDS011;65076;52.362;6.588;2023-04-24T08:52:35;0.80;;;0.55;;
76259;SDS011;65076;52.362;6.588;2023-04-24T08:57:05;1.15;;;0.43;;
76259;SDS011;65076;52.362;6.588;2023-04-24T09:01:36;1.95;;;1.23;;
76259;SDS011;65076;52.362;6.588;2023-04-24T09:06:06;1.60;;;1.30;;
76259;SDS011;65076;52.362;6.588;2023-04-24T09:10:38;3.67;;;2.25;;
76259;SDS011;65076;52.362;6.588;2023-04-24T09:15:08;7.18;;;2.88;;
76259;SDS011;65076;52.362;6.588;2023-04-24T09:19:38;1.95;;;1.63;;
76259;SDS011;65076;52.362;6.588;2023-04-24T09:24:22;8.00;;;3.22;;
76259;SDS011;65076;52.362;6.588;2023-04-24T09:28:53;5.88;;;3.17;;
76259;SDS011;65076;52.362;6.588;2023-04-24T09:33:25;7.75;;;3.10;;
76259;SDS011;65076;52.362;6.588;2023-04-24T09:37:55;8.07;;;2.97;;
76259;SDS011;65076;52.362;6.588;2023-04-24T09:42:28;3.28;;;2.15;;
76259;SDS011;65076;52.362;6.588;2023-04-24T09:46:59;5.57;;;3.15;;
76259;SDS011;65076;52.362;6.588;2023-04-24T09:51:33;9.00;;;3.28;;
76259;SDS011;65076;52.362;6.588;2023-04-24T09:56:02;5.90;;;2.03;;
76259;SDS011;65076;52.362;6.588;2023-04-24T10:00:32;5.93;;;2.72;;
76259;SDS011;65076;52.362;6.588;2023-04-24T10:05:04;5.88;;;2.40;;
76259;SDS011;65076;52.362;6.588;2023-04-24T10:09:35;3.33;;;2.20;;
76259;SDS011;65076;52.362;6.588;2023-04-24T10:14:05;2.67;;;1.75;;
76259;SDS011;65076;52.362;6.588;2023-04-24T10:18:35;4.93;;;2.42;;
76259;SDS011;65076;52.362;6.588;2023-04-24T10:23:07;4.07;;;2.58;;
76259;SDS011;65076;52.362;6.588;2023-04-24T10:27:36;4.82;;;2.28;;
76259;SDS011;65076;52.362;6.588;2023-04-24T10:32:07;3.75;;;1.33;;
76259;SDS011;65076;52.362;6.588;2023-04-24T10:36:38;5.30;;;2.58;;
76259;SDS011;65076;52.362;6.588;2023-04-24T10:41:12;5.80;;;2.00;;
76259;SDS011;65076;52.362;6.588;2023-04-24T10:50:14;3.58;;;1.88;;
76259;SDS011;65076;52.362;6.588;2023-04-24T10:54:45;7.60;;;1.75;;
76259;SDS011;65076;52.362;6.588;2023-04-24T10:59:25;7.25;;;1.88;;
76259;SDS011;65076;52.362;6.588;2023-04-24T11:03:56;6.57;;;2.20;;
76259;SDS011;65076;52.362;6.588;2023-04-24T11:08:29;10.27;;;2.30;;
76259;SDS011;65076;52.362;6.588;2023-04-24T11:13:01;6.45;;;2.40;;
76259;SDS011;65076;52.362;6.588;2023-04-24T11:17:33;7.53;;;1.92;;
76259;SDS011;65076;52.362;6.588;2023-04-24T11:22:13;9.63;;;2.30;;
76259;SDS011;65076;52.362;6.588;2023-04-24T11:26:45;8.32;;;1.67;;
76259;SDS011;65076;52.362;6.588;2023-04-24T11:31:33;11.07;;;1.85;;
76259;SDS011;65076;52.362;6.588;2023-04-24T11:36:06;2.05;;;0.93;;
76259;SDS011;65076;52.362;6.588;2023-04-24T11:40:38;1.85;;;1.10;;
76259;SDS011;65076;52.362;6.588;2023-04-24T11:45:08;4.25;;;1.52;;
76259;SDS011;65076;52.362;6.588;2023-04-24T11:49:39;3.33;;;1.40;;
76259;SDS011;65076;52.362;6.588;2023-04-24T11:54:18;7.45;;;1.25;;
76259;SDS011;65076;52.362;6.588;2023-04-24T11:58:54;3.58;;;1.10;;
76259;SDS011;65076;52.362;6.588;2023-04-24T12:03:24;5.22;;;1.00;;
76259;SDS011;65076;52.362;6.588;2023-04-24T12:07:55;3.70;;;1.15;;
76259;SDS011;65076;52.362;6.588;2023-04-24T12:12:26;3.05;;;0.90;;
76259;SDS011;65076;52.362;6.588;2023-04-24T12:16:56;2.40;;;1.23;;
76259;SDS011;65076;52.362;6.588;2023-04-24T12:21:27;2.50;;;0.95;;
76259;SDS011;65076;52.362;6.588;2023-04-24T12:26:00;2.67;;;1.13;;
76259;SDS011;65076;52.362;6.588;2023-04-24T12:30:30;3.28;;;1.25;;
76259;SDS011;65076;52.362;6.588;2023-04-24T12:35:00;3.00;;;0.90;;
76259;SDS011;65076;52.362;6.588;2023-04-24T12:39:30;6.43;;;1.65;;
76259;SDS011;65076;52.362;6.588;2023-04-24T12:44:01;3.28;;;0.93;;
76259;SDS011;65076;52.362;6.588;2023-04-24T12:48:31;2.08;;;0.88;;
76259;SDS011;65076;52.362;6.588;2023-04-24T12:53:00;2.53;;;0.88;;
76259;SDS011;65076;52.362;6.588;2023-04-24T12:57:31;3.00;;;1.00;;
76259;SDS011;65076;52.362;6.588;2023-04-24T13:02:01;3.58;;;1.10;;
76259;SDS011;65076;52.362;6.588;2023-04-24T13:06:31;5.43;;;1.15;;
76259;SDS011;65076;52.362;6.588;2023-04-24T13:11:00;1.75;;;0.68;;
76259;SDS011;65076;52.362;6.588;2023-04-24T13:15:30;1.85;;;0.60;;
76259;SDS011;65076;52.362;6.588;2023-04-24T13:20:00;2.22;;;0.70;;
76259;SDS011;65076;52.362;6.588;2023-04-24T13:24:30;2.97;;;0.50;;
76259;SDS011;65076;52.362;6.588;2023-04-24T13:29:00;1.77;;;0.80;;
76259;SDS011;65076;52.362;6.588;2023-04-24T13:33:29;1.88;;;0.38;;
76259;SDS011;65076;52.362;6.588;2023-04-24T13:38:02;2.65;;;0.70;;
76259;SDS011;65076;52.362;6.588;2023-04-24T13:42:33;1.67;;;0.50;;
76259;SDS011;65076;52.362;6.588;2023-04-24T13:47:02;0.35;;;0.22;;
76259;SDS011;65076;52.362;6.588;2023-04-24T13:51:32;2.80;;;0.60;;
76259;SDS011;65076;52.362;6.588;2023-04-24T13:56:05;2.05;;;0.52;;
76259;SDS011;65076;52.362;6.588;2023-04-24T14:00:35;2.35;;;0.73;;
76259;SDS011;65076;52.362;6.588;2023-04-24T14:05:05;1.17;;;0.70;;
76259;SDS011;65076;52.362;6.588;2023-04-24T14:09:35;2.45;;;0.85;;
76259;SDS011;65076;52.362;6.588;2023-04-24T14:14:05;2.55;;;0.95;;
76259;SDS011;65076;52.362;6.588;2023-04-24T14:18:36;4.28;;;0.70;;
76259;SDS011;65076;52.362;6.588;2023-04-24T14:23:05;4.47;;;0.70;;
76259;SDS011;65076;52.362;6.588;2023-04-24T14:27:34;3.85;;;1.38;;
76259;SDS011;65076;52.362;6.588;2023-04-24T14:32:05;2.30;;;1.95;;
76259;SDS011;65076;52.362;6.588;2023-04-24T14:36:34;4.70;;;1.17;;
76259;SDS011;65076;52.362;6.588;2023-04-24T14:41:04;3.90;;;1.00;;
76259;SDS011;65076;52.362;6.588;2023-04-24T14:45:33;4.07;;;0.88;;
76259;SDS011;65076;52.362;6.588;2023-04-24T14:50:05;2.78;;;0.73;;
76259;SDS011;65076;52.362;6.588;2023-04-24T14:54:35;4.28;;;1.17;;
76259;SDS011;65076;52.362;6.588;2023-04-24T14:59:06;2.28;;;1.48;;
76259;SDS011;65076;52.362;6.588;2023-04-24T15:03:38;6.40;;;1.75;;
76259;SDS011;65076;52.362;6.588;2023-04-24T15:08:09;3.85;;;1.45;;
76259;SDS011;65076;52.362;6.588;2023-04-24T15:12:39;4.15;;;0.90;;
76259;SDS011;65076;52.362;6.588;2023-04-24T15:17:11;4.65;;;1.33;;
76259;SDS011;65076;52.362;6.588;2023-04-24T15:21:40;8.27;;;1.40;;
76259;SDS011;65076;52.362;6.588;2023-04-24T15:26:11;5.93;;;1.52;;
76259;SDS011;65076;52.362;6.588;2023-04-24T15:30:43;6.22;;;1.70;;
76259;SDS011;65076;52.362;6.588;2023-04-24T15:35:12;5.07;;;1.45;;
76259;SDS011;65076;52.362;6.588;2023-04-24T15:39:41;4.35;;;1.60;;
76259;SDS011;65076;52.362;6.588;2023-04-24T15:44:14;6.43;;;2.08;;
76259;SDS011;65076;52.362;6.588;2023-04-24T15:48:44;7.32;;;2.05;;
76259;SDS011;65076;52.362;6.588;2023-04-24T15:53:13;4.60;;;1.52;;
76259;SDS011;65076;52.362;6.588;2023-04-24T15:57:42;5.72;;;1.60;;
76259;SDS011;65076;52.362;6.588;2023-04-24T16:02:13;6.68;;;1.77;;
76259;SDS011;65076;52.362;6.588;2023-04-24T16:06:43;5.70;;;1.55;;
76259;SDS011;65076;52.362;6.588;2023-04-24T16:11:13;4.25;;;1.50;;
76259;SDS011;65076;52.362;6.588;2023-04-24T16:15:43;5.68;;;1.85;;
76259;SDS011;65076;52.362;6.588;2023-04-24T16:20:14;2.88;;;1.10;;
76259;SDS011;65076;52.362;6.588;2023-04-24T16:24:43;7.80;;;1.38;;
76259;SDS011;65076;52.362;6.588;2023-04-24T16:29:12;3.17;;;1.17;;
76259;SDS011;65076;52.362;6.588;2023-04-24T16:33:42;5.72;;;2.20;;
76259;SDS011;65076;52.362;6.588;2023-04-24T16:38:13;2.80;;;1.17;;
76259;SDS011;65076;52.362;6.588;2023-04-24T16:42:43;5.32;;;1.48;;
76259;SDS011;65076;52.362;6.588;2023-04-24T16:47:12;8.18;;;1.60;;
76259;SDS011;65076;52.362;6.588;2023-04-24T16:51:41;4.85;;;1.50;;
76259;SDS011;65076;52.362;6.588;2023-04-24T16:56:12;8.25;;;1.92;;
76259;SDS011;65076;52.362;6.588;2023-04-24T17:00:41;9.07;;;1.88;;
76259;SDS011;65076;52.362;6.588;2023-04-24T17:05:13;6.47;;;1.92;;
76259;SDS011;65076;52.362;6.588;2023-04-24T17:09:43;8.88;;;2.17;;
76259;SDS011;65076;52.362;6.588;2023-04-24T17:14:14;4.43;;;1.77;;
76259;SDS011;65076;52.362;6.588;2023-04-24T17:18:43;6.38;;;1.58;;
76259;SDS011;65076;52.362;6.588;2023-04-24T17:23:12;3.47;;;1.25;;
76259;SDS011;65076;52.362;6.588;2023-04-24T17:27:42;3.08;;;1.30;;
76259;SDS011;65076;52.362;6.588;2023-04-24T17:32:13;7.47;;;1.65;;
76259;SDS011;65076;52.362;6.588;2023-04-24T17:36:42;5.80;;;1.20;;
76259;SDS011;65076;52.362;6.588;2023-04-24T17:41:12;7.03;;;1.27;;
76259;SDS011;65076;52.362;6.588;2023-04-24T17:45:43;6.10;;;1.55;;
76259;SDS011;65076;52.362;6.588;2023-04-24T17:50:15;1.95;;;1.25;;
76259;SDS011;65076;52.362;6.588;2023-04-24T17:54:45;4.05;;;1.58;;
76259;SDS011;65076;52.362;6.588;2023-04-24T17:59:14;4.65;;;1.75;;
76259;SDS011;65076;52.362;6.588;2023-04-24T18:03:44;5.20;;;1.48;;
76259;SDS011;65076;52.362;6.588;2023-04-24T18:08:15;4.35;;;1.40;;
76259;SDS011;65076;52.362;6.588;2023-04-24T18:12:45;4.32;;;1.80;;
76259;SDS011;65076;52.362;6.588;2023-04-24T18:17:15;5.15;;;1.83;;
76259;SDS011;65076;52.362;6.588;2023-04-24T18:21:44;4.82;;;2.00;;
76259;SDS011;65076;52.362;6.588;2023-04-24T18:26:15;4.07;;;1.38;;
76259;SDS011;65076;52.362;6.588;2023-04-24T18:30:44;3.85;;;1.20;;
76259;SDS011;65076;52.362;6.588;2023-04-24T18:35:14;4.30;;;1.98;;
76259;SDS011;65076;52.362;6.588;2023-04-24T18:39:43;8.45;;;1.38;;
76259;SDS011;65076;52.362;6.588;2023-04-24T18:44:14;4.88;;;1.77;;
76259;SDS011;65076;52.362;6.588;2023-04-24T18:48:43;7.10;;;1.55;;
76259;SDS011;65076;52.362;6.588;2023-04-24T18:53:13;7.28;;;1.83;;
76259;SDS011;65076;52.362;6.588;2023-04-24T18:57:42;3.85;;;1.58;;
76259;SDS011;65076;52.362;6.588;2023-04-24T19:02:13;8.45;;;2.00;;
76259;SDS011;65076;52.362;6.588;2023-04-24T19:06:45;5.22;;;1.38;;
76259;SDS011;65076;52.362;6.588;2023-04-24T19:11:15;8.23;;;1.88;;
76259;SDS011;65076;52.362;6.588;2023-04-24T19:15:47;10.65;;;3.75;;
76259;SDS011;65076;52.362;6.588;2023-04-24T19:20:18;5.50;;;1.42;;
76259;SDS011;65076;52.362;6.588;2023-04-24T19:24:47;8.38;;;2.65;;
76259;SDS011;65076;52.362;6.588;2023-04-24T19:29:17;6.72;;;1.90;;
76259;SDS011;65076;52.362;6.588;2023-04-24T19:33:46;5.28;;;2.08;;
76259;SDS011;65076;52.362;6.588;2023-04-24T19:38:17;5.95;;;1.30;;
76259;SDS011;65076;52.362;6.588;2023-04-24T19:42:46;5.80;;;1.73;;
76259;SDS011;65076;52.362;6.588;2023-04-24T19:47:15;10.73;;;1.60;;
76259;SDS011;65076;52.362;6.588;2023-04-24T19:51:44;6.18;;;1.52;;
76259;SDS011;65076;52.362;6.588;2023-04-24T19:56:16;7.03;;;1.45;;
76259;SDS011;65076;52.362;6.588;2023-04-24T20:00:46;5.30;;;1.70;;
76259;SDS011;65076;52.362;6.588;2023-04-24T20:05:15;7.22;;;1.77;;
76259;SDS011;65076;52.362;6.588;2023-04-24T20:09:45;8.10;;;2.63;;
76259;SDS011;65076;52.362;6.588;2023-04-24T20:14:17;7.68;;;2.33;;
76259;SDS011;65076;52.362;6.588;2023-04-24T20:18:47;6.07;;;2.35;;
76259;SDS011;65076;52.362;6.588;2023-04-24T20:23:19;5.60;;;2.50;;
76259;SDS011;65076;52.362;6.588;2023-04-24T20:27:48;5.30;;;2.10;;
76259;SDS011;65076;52.362;6.588;2023-04-24T20:32:21;6.25;;;1.75;;
76259;SDS011;65076;52.362;6.588;2023-04-24T20:36:50;8.13;;;2.53;;
76259;SDS011;65076;52.362;6.588;2023-04-24T20:41:19;6.10;;;1.83;;
76259;SDS011;65076;52.362;6.588;2023-04-24T20:45:53;3.90;;;1.92;;
76259;SDS011;65076;52.362;6.588;2023-04-24T20:50:24;6.88;;;2.25;;
76259;SDS011;65076;52.362;6.588;2023-04-24T20:54:53;8.13;;;2.17;;
76259;SDS011;65076;52.362;6.588;2023-04-24T20:59:23;9.77;;;3.45;;
76259;SDS011;65076;52.362;6.588;2023-04-24T21:03:52;7.80;;;2.72;;
76259;SDS011;65076;52.362;6.588;2023-04-24T21:08:23;5.35;;;2.25;;
76259;SDS011;65076;52.362;6.588;2023-04-24T21:12:52;5.57;;;2.33;;
76259;SDS011;65076;52.362;6.588;2023-04-24T21:17:21;3.53;;;1.88;;
76259;SDS011;65076;52.362;6.588;2023-04-24T21:21:51;8.00;;;2.45;;
76259;SDS011;65076;52.362;6.588;2023-04-24T21:26:21;4.75;;;2.60;;
76259;SDS011;65076;52.362;6.588;2023-04-24T21:30:50;7.85;;;2.17;;
76259;SDS011;65076;52.362;6.588;2023-04-24T21:35:22;7.93;;;2.00;;
76259;SDS011;65076;52.362;6.588;2023-04-24T21:39:51;7.13;;;1.73;;
76259;SDS011;65076;52.362;6.588;2023-04-24T21:44:22;3.28;;;1.70;;
76259;SDS011;65076;52.362;6.588;2023-04-24T21:48:51;3.20;;;1.00;;
76259;SDS011;65076;52.362;6.588;2023-04-24T21:53:21;7.30;;;2.17;;
76259;SDS011;65076;52.362;6.588;2023-04-24T21:57:50;5.50;;;1.63;;
76259;SDS011;65076;52.362;6.588;2023-04-24T22:02:21;4.53;;;1.70;;
76259;SDS011;65076;52.362;6.588;2023-04-24T22:06:50;4.85;;;1.70;;
76259;SDS011;65076;52.362;6.588;2023-04-24T22:11:21;6.10;;;1.60;;
76259;SDS011;65076;52.362;6.588;2023-04-24T22:15:50;4.65;;;1.33;;
76259;SDS011;65076;52.362;6.588;2023-04-24T22:20:22;2.30;;;1.42;;
76259;SDS011;65076;52.362;6.588;2023-04-24T22:24:51;4.53;;;1.90;;
76259;SDS011;65076;52.362;6.588;2023-04-24T22:29:20;3.97;;;1.60;;
76259;SDS011;65076;52.362;6.588;2023-04-24T22:33:51;4.43;;;1.77;;
76259;SDS011;65076;52.362;6.588;2023-04-24T22:38:22;5.95;;;2.40;;
76259;SDS011;65076;52.362;6.588;2023-04-24T22:42:51;9.45;;;2.35;;
76259;SDS011;65076;52.362;6.588;2023-04-24T22:47:20;8.65;;;2.25;;
76259;SDS011;65076;52.362;6.588;2023-04-24T22:51:52;11.68;;;3.22;;
76259;SDS011;65076;52.362;6.588;2023-04-24T22:56:24;9.65;;;2.40;;
76259;SDS011;65076;52.362;6.588;2023-04-24T23:00:53;13.43;;;2.67;;
76259;SDS011;65076;52.362;6.588;2023-04-24T23:05:22;8.65;;;2.42;;
76259;SDS011;65076;52.362;6.588;2023-04-24T23:09:52;10.02;;;3.63;;
76259;SDS011;65076;52.362;6.588;2023-04-24T23:14:24;11.18;;;2.63;;
76259;SDS011;65076;52.362;6.588;2023-04-24T23:18:56;14.07;;;3.50;;
76259;SDS011;65076;52.362;6.588;2023-04-24T23:23:27;16.55;;;3.17;;
76259;SDS011;65076;52.362;6.588;2023-04-24T23:27:57;10.75;;;2.60;;
76259;SDS011;65076;52.362;6.588;2023-04-24T23:32:28;12.80;;;3.70;;
76259;SDS011;65076;52.362;6.588;2023-04-24T23:36:59;11.20;;;4.57;;
76259;SDS011;65076;52.362;6.588;2023-04-24T23:41:30;10.10;;;2.50;;
76259;SDS011;65076;52.362;6.588;2023-04-24T23:45:59;14.07;;;3.15;;
76259;SDS011;65076;52.362;6.588;2023-04-24T23:50:30;18.27;;;3.20;;
76259;SDS011;65076;52.362;6.588;2023-04-24T23:55:00;11.70;;;3.35;;
76259;SDS011;65076;52.362;6.588;2023-04-24T23:59:29;11.75;;;3.30;;
